Time;durP1;ratioP1;P1;durP2;ratioP2;P2;SDS_P1;SDS_P2;PMS_P1;PMS_P2;Temp;Humidity;BMP_temperature;BMP_pressure;BME280_temperature;BME280_humidity;BME280_pressure;Samples;Min_cycle;Max_cycle;Signal;HPM_P1;HPM_P2
2024/03/26 00:00:20;;;;;;;42.17;17.75;;;2.80;99.90;;;1.37;94.92;100124.41;6169840;23;20342;-81
2024/03/26 00:02:46;;;;;;;38.17;13.20;;;2.80;99.90;;;1.35;95.48;100128.75;6169162;23;20087;-83
2024/03/26 00:05:12;;;;;;;68.28;26.15;;;2.80;99.90;;;1.38;95.57;100122.66;6194046;23;20350;-80
2024/03/26 00:07:38;;;;;;;42.15;21.45;;;2.90;99.90;;;1.40;96.23;100119.16;6195178;23;20057;-81
2024/03/26 00:10:09;;;;;;;20.85;9.48;;;2.90;99.90;;;1.42;96.89;100121.72;6193701;23;20008;-80
2024/03/26 00:12:35;;;;;;;31.42;13.15;;;2.90;99.90;;;1.44;96.48;100122.53;6169670;23;20000;-80
2024/03/26 00:15:01;;;;;;;56.28;30.02;;;2.90;99.90;;;1.43;97.31;100111.31;6193996;23;20024;-80
2024/03/26 00:17:27;;;;;;;22.27;10.20;;;2.90;99.90;;;1.43;97.16;100116.50;6193341;23;20015;-81
2024/03/26 00:19:52;;;;;;;15.63;8.23;;;2.90;99.90;;;1.37;96.77;100116.63;6194989;23;20015;-80
2024/03/26 00:25:07;;;;;;;16.08;7.30;;;2.70;99.90;;;1.10;96.22;100107.63;6080122;23;20034;-80
2024/03/26 00:27:33;;;;;;;13.05;6.45;;;2.60;99.90;;;1.02;95.32;100110.34;6073107;23;20018;-80
2024/03/26 00:29:59;;;;;;;23.55;9.18;;;2.50;99.90;;;1.00;95.34;100112.09;6074563;23;20083;-81
2024/03/26 00:32:25;;;;;;;18.95;8.82;;;2.50;99.90;;;0.98;95.69;100113.84;6050669;23;20482;-81
2024/03/26 00:34:59;;;;;;;24.25;12.35;;;2.60;99.90;;;1.06;95.91;100110.25;6075289;23;20471;-80
2024/03/26 00:37:25;;;;;;;23.02;11.45;;;2.60;99.90;;;1.11;96.75;100114.50;6052109;23;20006;-81
2024/03/26 00:39:51;;;;;;;32.70;15.70;;;2.60;99.90;;;1.17;97.42;100119.59;6051035;23;20036;-81
2024/03/26 00:42:17;;;;;;;127.53;65.53;;;2.70;99.90;;;1.22;97.42;100114.31;6051344;23;20010;-82
2024/03/26 00:44:45;;;;;;;62.85;30.00;;;2.70;99.90;;;1.26;98.13;100108.19;6050741;23;20683;-81
2024/03/26 00:47:13;;;;;;;293.90;165.98;;;2.70;99.90;;;1.27;98.55;100115.06;6076011;23;20037;-80
2024/03/26 00:49:39;;;;;;;123.82;73.43;;;2.70;99.90;;;1.27;98.78;100109.03;6052995;23;20015;-81
2024/03/26 00:52:07;;;;;;;131.65;80.65;;;2.80;99.90;;;1.28;98.86;100113.34;6075358;23;20422;-81
2024/03/26 00:54:33;;;;;;;72.45;41.92;;;2.70;99.90;;;1.22;98.83;100107.38;6075059;23;20029;-81
2024/03/26 00:57:22;;;;;;;44.38;23.90;;;2.70;99.90;;;1.22;98.95;100106.53;6051900;23;20010;-81
2024/03/26 00:59:50;;;;;;;42.85;24.70;;;2.70;99.90;;;1.24;99.21;100104.75;6071183;23;20094;-80
2024/03/26 01:02:16;;;;;;;21.92;8.43;;;2.70;99.90;;;1.19;99.35;100107.44;6093013;23;20010;-80
2024/03/26 01:04:42;;;;;;;59.55;34.15;;;2.70;99.90;;;1.16;98.99;100106.63;6105505;23;20024;-80
2024/03/26 01:07:12;;;;;;;88.90;46.65;;;2.70;99.90;;;1.14;99.13;100105.81;6105660;23;20073;-80
2024/03/26 01:09:38;;;;;;;53.35;27.33;;;2.60;99.90;;;1.11;99.50;100104.13;6106313;23;20009;-80
2024/03/26 01:12:04;;;;;;;44.58;24.67;;;2.60;99.90;;;1.11;99.06;100109.31;6104480;23;20124;-79
2024/03/26 01:14:30;;;;;;;58.28;34.78;;;2.60;99.90;;;1.12;99.23;100112.75;6081194;23;20021;-80
2024/03/26 01:16:55;;;;;;;87.88;10.02;;;2.60;99.90;;;1.09;99.35;100102.44;6131083;23;20044;-80
2024/03/26 01:19:21;;;;;;;22.83;10.52;;;2.60;99.90;;;1.01;99.34;100111.19;6220601;23;20032;-79
2024/03/26 01:22:01;;;;;;;18.77;10.25;;;2.50;99.90;;;0.92;98.82;100111.34;6195611;23;20456;-79
2024/03/26 01:24:49;;;;;;;23.35;9.50;;;2.40;99.90;;;0.83;98.65;100098.56;6194821;23;20001;-79
2024/03/26 01:27:21;;;;;;;23.83;8.70;;;2.40;99.90;;;0.88;98.85;100117.47;6176719;23;20012;-80
2024/03/26 01:30:11;;;;;;;32.42;15.68;;;2.40;99.90;;;0.93;99.36;100112.22;6223276;23;20080;-80
2024/03/26 01:32:57;;;;;;;29.60;13.55;;;2.50;99.90;;;0.96;99.53;100117.38;6074958;23;20083;-80
2024/03/26 01:35:31;;;;;;;19.63;10.18;;;2.50;99.90;;;0.99;99.76;100114.69;6099782;23;20021;-79
2024/03/26 01:38:12;;;;;;;33.97;16.08;;;2.50;99.90;;;1.00;100.00;100106.91;6198936;22;20049;-80
2024/03/26 01:40:52;;;;;;;19.33;8.05;;;2.50;99.90;;;1.03;100.00;100109.44;6231301;22;20022;-80
2024/03/26 01:43:20;;;;;;;30.98;12.02;;;2.60;99.90;;;1.07;100.00;100104.22;6258904;22;20008;-80
2024/03/26 01:45:59;;;;;;;26.95;11.73;;;2.60;99.90;;;1.09;100.00;100108.47;6255306;22;20000;-80
2024/03/26 01:48:25;;;;;;;23.48;12.32;;;2.60;99.90;;;1.08;100.00;100106.78;6224061;23;20008;-80
2024/03/26 01:51:04;;;;;;;23.35;9.38;;;2.60;99.90;;;1.09;100.00;100103.28;6225080;23;20062;-80
2024/03/26 01:53:30;;;;;;;21.42;9.10;;;;;;;1.08;100.00;100103.31;6198978;23;20073;-79
2024/03/26 01:58:47;;;;;;;23.70;8.95;;;2.60;99.90;;;1.09;100.00;100105.03;6220396;22;20025;-79
2024/03/26 02:01:24;;;;;;;;;;;;;;;;;;;;;
2024/03/26 02:03:51;;;;;;;21.20;9.68;;;2.60;99.90;;;1.15;100.00;100098.00;6183682;23;20024;-80
2024/03/26 02:06:29;;;;;;;19.05;7.43;;;2.70;99.90;;;1.17;100.00;100108.38;6169095;23;20039;-80
2024/03/26 02:08:57;;;;;;;33.05;10.95;;;2.60;99.90;;;1.12;100.00;100095.44;6194614;23;20012;-80
2024/03/26 02:11:32;;;;;;;19.65;9.57;;;2.60;99.90;;;1.11;100.00;100095.50;6193363;23;20004;-80
2024/03/26 02:14:01;;;;;;;21.70;8.65;;;2.60;99.90;;;1.11;100.00;100103.28;6170417;23;20012;-80
2024/03/26 02:16:50;;;;;;;21.70;8.18;;;2.60;99.90;;;1.07;100.00;100101.63;6192790;22;20001;-80
2024/03/26 02:22:12;;;;;;;22.70;7.30;;;2.60;99.90;;;0.98;100.00;100095.72;6155220;23;20032;-80
2024/03/26 02:25:13;;;;;;;20.58;7.78;;;2.50;99.90;;;0.93;100.00;100089.75;6107449;23;20483;-79
2024/03/26 02:28:10;;;;;;;18.52;7.65;;;2.40;99.90;;;0.90;100.00;100086.34;6039727;23;20011;-80
2024/03/26 02:30:44;;;;;;;24.52;8.52;;;2.40;99.90;;;0.85;100.00;100076.06;5932087;24;20016;-79
2024/03/26 02:33:13;;;;;;;19.98;8.82;;;2.40;99.90;;;0.82;100.00;100070.91;5931922;24;20913;-80
2024/03/26 02:35:52;;;;;;;22.95;8.73;;;2.40;99.90;;;0.84;100.00;100082.13;5934209;24;20067;-80
2024/03/26 02:38:30;;;;;;;18.58;8.15;;;2.40;99.90;;;0.82;100.00;100073.50;5931392;24;20657;-80
2024/03/26 02:41:06;;;;;;;;;;;;;;;;;;;;;
2024/03/26 02:43:32;;;;;;;18.35;8.25;;;2.40;99.90;;;0.79;100.00;100068.38;5933470;24;20103;-78
2024/03/26 02:46:01;;;;;;;17.48;7.93;;;2.30;99.90;;;0.80;100.00;100068.38;5932724;24;20158;-79
2024/03/26 02:48:51;;;;;;;29.58;10.98;;;2.30;99.90;;;0.77;100.00;100064.97;5932670;24;20013;-80
2024/03/26 02:51:20;;;;;;;23.05;8.63;;;;;;;0.80;100.00;100070.13;5934653;24;20089;-79
2024/03/26 02:54:15;;;;;;;29.88;9.73;;;2.40;99.90;;;0.87;100.00;100065.69;5954045;24;20009;-80
2024/03/26 02:56:53;;;;;;;18.80;9.00;;;2.40;99.90;;;0.95;100.00;100067.25;5904966;22;20412;-80
2024/03/26 02:59:21;;;;;;;17.50;7.80;;;2.40;99.90;;;0.94;100.00;100062.94;6192096;23;20017;-79
2024/03/26 03:02:12;;;;;;;18.48;7.75;;;2.50;99.90;;;0.95;100.00;100056.88;6191669;23;20004;-80
2024/03/26 03:04:41;;;;;;;20.10;8.48;;;2.50;99.90;;;0.93;100.00;100052.59;6217720;23;20450;-80
2024/03/26 03:07:48;;;;;;;16.08;7.38;;;2.50;99.90;;;0.92;100.00;100051.75;6162075;23;20005;-80
2024/03/26 03:10:14;;;;;;;18.80;8.00;;;2.40;99.90;;;0.85;100.00;100044.97;6046699;23;20069;-80
2024/03/26 03:12:41;;;;;;;29.13;11.20;;;2.40;99.90;;;0.84;100.00;100051.00;6046762;23;20015;-79
2024/03/26 03:15:22;;;;;;;19.23;8.82;;;2.30;99.90;;;0.85;100.00;100052.75;6022376;23;20428;-80
2024/03/26 03:18:44;;;;;;;22.40;9.00;;;2.30;99.90;;;0.83;100.00;100044.13;6162312;22;20028;-80
2024/03/26 03:21:14;;;;;;;23.38;8.48;;;2.40;99.90;;;0.82;100.00;100045.00;6073212;23;20463;-79
2024/03/26 03:23:52;;;;;;;24.75;8.73;;;;;;;0.81;100.00;100044.16;6098062;23;20093;-79
2024/03/26 03:26:20;;;;;;;22.63;9.55;;;2.40;99.90;;;0.86;100.00;100053.59;6120895;22;20020;-81
2024/03/26 03:28:48;;;;;;;21.48;8.60;;;2.30;99.90;;;0.87;100.00;100052.72;6161534;23;20087;-81
2024/03/26 03:31:14;;;;;;;21.25;8.25;;;2.40;99.90;;;0.90;100.00;100053.50;6160981;23;20009;-81
2024/03/26 03:33:40;;;;;;;19.20;8.82;;;2.40;99.90;;;0.93;100.00;100044.81;6160392;23;20052;-81
2024/03/26 03:36:06;;;;;;;18.02;8.25;;;2.40;99.90;;;0.95;100.00;100049.13;6161223;23;20027;-82
2024/03/26 03:38:31;;;;;;;19.67;8.45;;;2.50;99.90;;;0.95;100.00;100058.59;6186693;23;20511;-81
2024/03/26 03:40:57;;;;;;;18.17;8.48;;;2.50;99.90;;;0.92;100.00;100049.16;6212855;23;20092;-81
2024/03/26 03:43:23;;;;;;;18.73;8.45;;;2.40;99.90;;;0.94;100.00;100049.13;6185480;23;20087;-81
2024/03/26 03:45:51;;;;;;;20.55;8.15;;;2.50;99.90;;;0.92;100.00;100062.09;6162084;23;20060;-81
2024/03/26 03:48:17;;;;;;;23.25;8.35;;;2.40;99.90;;;0.94;100.00;100059.50;6187102;23;19996;-81
2024/03/26 03:50:43;;;;;;;18.65;8.48;;;2.50;99.90;;;0.93;100.00;100052.59;6160836;23;20014;-81
2024/03/26 03:53:09;;;;;;;18.60;7.90;;;2.40;99.90;;;0.93;100.00;100048.28;6185860;23;20603;-81
2024/03/26 03:55:34;;;;;;;25.92;9.40;;;2.50;99.90;;;0.93;100.00;100050.00;6185730;23;20008;-81
2024/03/26 03:58:00;;;;;;;19.83;8.50;;;2.50;99.90;;;0.93;100.00;100052.59;6186647;23;20087;-80
2024/03/26 04:00:26;;;;;;;21.30;8.93;;;2.50;99.90;;;0.96;100.00;100047.38;6185904;23;20393;-80
2024/03/26 04:02:56;;;;;;;24.55;8.93;;;2.50;99.90;;;0.96;100.00;100042.19;6185780;23;20013;-81
2024/03/26 04:05:22;;;;;;;24.60;8.50;;;2.50;99.90;;;0.95;100.00;100046.53;6185926;23;20460;-81
2024/03/26 04:07:48;;;;;;;18.52;7.45;;;2.50;99.90;;;0.96;100.00;100048.22;6161476;23;20009;-81
2024/03/26 04:10:14;;;;;;;21.08;8.00;;;2.50;99.90;;;0.95;100.00;100043.03;6186173;23;20032;-81
2024/03/26 04:12:40;;;;;;;18.23;7.35;;;2.50;99.90;;;0.92;100.00;100046.56;6161102;23;20044;-81
2024/03/26 04:15:11;;;;;;;18.25;7.97;;;2.40;99.90;;;0.90;100.00;100050.06;6185918;23;20028;-80
2024/03/26 04:17:37;;;;;;;19.25;7.55;;;2.40;99.90;;;0.83;100.00;100051.91;6186293;23;20077;-81
2024/03/26 04:20:04;;;;;;;19.55;8.27;;;2.30;99.90;;;0.79;100.00;100040.72;6186510;23;20464;-81
2024/03/26 04:22:30;;;;;;;17.70;7.82;;;2.30;99.90;;;0.77;100.00;100045.09;6186264;23;20558;-81
2024/03/26 04:24:59;;;;;;;18.17;8.32;;;2.30;99.90;;;0.73;100.00;100050.34;6163440;23;20027;-80
2024/03/26 04:27:27;;;;;;;21.38;8.27;;;2.30;99.90;;;0.70;100.00;100047.81;6187632;23;20039;-81
2024/03/26 04:29:53;;;;;;;20.20;8.25;;;2.20;99.90;;;0.68;100.00;100047.00;6163410;23;20012;-81
2024/03/26 04:32:19;;;;;;;23.35;8.57;;;2.20;99.90;;;0.65;100.00;100041.84;6187826;23;20032;-81
2024/03/26 04:34:45;;;;;;;22.60;8.75;;;2.20;99.90;;;0.59;100.00;100038.50;6187288;23;20005;-81
2024/03/26 04:37:11;;;;;;;22.90;8.85;;;2.20;99.90;;;0.55;100.00;100041.16;6187732;23;20028;-81
2024/03/26 04:39:36;;;;;;;29.90;9.88;;;2.10;99.90;;;0.52;100.00;100042.06;6187926;23;20403;-81
2024/03/26 04:42:03;;;;;;;32.30;8.77;;;2.10;99.90;;;0.50;100.00;100043.84;6187552;23;20095;-80
2024/03/26 04:44:33;;;;;;;20.33;9.15;;;2.10;99.90;;;0.46;100.00;100037.00;6187608;23;20096;-80
2024/03/26 04:46:59;;;;;;;20.75;7.85;;;2.00;99.90;;;0.42;100.00;100032.72;6188760;23;20076;-81
2024/03/26 04:49:25;;;;;;;24.92;8.68;;;2.00;99.90;;;0.38;100.00;100033.66;6187600;23;20106;-82
2024/03/26 04:51:51;;;;;;;22.92;8.65;;;1.90;99.90;;;0.35;100.00;100034.56;6186746;23;20087;-80
2024/03/26 04:54:17;;;;;;;21.58;9.20;;;1.90;99.90;;;0.35;100.00;100033.72;6187594;23;20015;-80
2024/03/26 04:56:50;;;;;;;24.13;9.57;;;1.90;99.90;;;0.33;100.00;100041.50;6189921;23;20318;-80
2024/03/26 04:59:16;;;;;;;19.75;8.77;;;1.90;99.90;;;0.34;100.00;100042.34;6188449;23;20083;-81
2024/03/26 05:01:41;;;;;;;23.05;8.63;;;1.90;99.90;;;0.34;100.00;100042.34;6186933;23;20574;-80
2024/03/26 05:04:07;;;;;;;24.50;9.23;;;1.90;99.90;;;0.34;100.00;100039.75;6187913;23;20008;-80
2024/03/26 05:06:33;;;;;;;20.75;8.75;;;;;;;0.34;100.00;100048.38;6187715;23;20110;-80
2024/03/26 05:09:07;;;;;;;26.25;8.82;;;1.90;99.90;;;0.32;100.00;100047.53;6213493;23;20059;-80
2024/03/26 05:11:33;;;;;;;19.58;8.57;;;1.90;99.90;;;0.31;100.00;100042.41;6213668;23;20004;-79
2024/03/26 05:13:59;;;;;;;19.10;7.65;;;1.90;99.90;;;0.29;100.00;100046.75;6162795;23;20518;-79
2024/03/26 05:16:25;;;;;;;25.77;9.00;;;1.90;99.90;;;0.29;100.00;100057.97;6162054;23;20080;-81
2024/03/26 05:19:00;;;;;;;23.45;8.52;;;1.80;99.90;;;0.28;100.00;100045.03;6162811;23;20008;-80
2024/03/26 05:21:26;;;;;;;21.60;8.05;;;1.80;99.90;;;0.28;100.00;100047.63;6189119;23;19997;-80
2024/03/26 05:23:52;;;;;;;22.35;7.70;;;1.80;99.90;;;0.25;100.00;100040.75;6186772;23;20015;-79
2024/03/26 05:26:17;;;;;;;26.83;9.07;;;1.80;99.90;;;0.25;100.00;100050.28;6186785;23;20365;-80
2024/03/26 05:28:43;;;;;;;27.73;9.07;;;1.80;99.90;;;0.23;100.00;100041.66;6186617;23;20116;-81
2024/03/26 05:31:18;;;;;;;18.55;7.88;;;1.80;99.90;;;0.22;100.00;100046.00;6187168;23;20059;-80
2024/03/26 05:33:52;;;;;;;18.50;7.93;;;1.80;99.90;;;0.17;100.00;100042.59;6187047;23;20005;-79
2024/03/26 05:36:18;;;;;;;20.20;8.07;;;1.80;99.90;;;0.19;100.00;100046.03;6186332;23;20096;-79
2024/03/26 05:38:44;;;;;;;19.33;8.35;;;1.80;99.90;;;0.19;100.00;100046.03;6187841;23;20691;-79
2024/03/26 05:41:10;;;;;;;18.55;7.90;;;1.80;99.90;;;0.19;100.00;100044.31;6211650;23;20096;-80
2024/03/26 05:43:35;;;;;;;18.95;8.25;;;1.80;99.90;;;0.22;100.00;100039.94;6161733;23;20091;-80
2024/03/26 05:46:06;;;;;;;18.58;7.82;;;1.80;99.90;;;0.24;100.00;100041.66;6186849;23;20009;-79
2024/03/26 05:48:34;;;;;;;21.10;8.23;;;1.80;99.90;;;0.28;100.00;100039.84;6213626;23;20000;-80
2024/03/26 05:50:59;;;;;;;25.00;9.18;;;1.80;99.90;;;0.33;100.00;100040.66;6186951;23;20016;-79
2024/03/26 05:53:25;;;;;;;22.35;8.77;;;1.90;99.90;;;0.38;100.00;100037.09;6186252;23;20040;-79
2024/03/26 05:55:51;;;;;;;21.17;9.60;;;1.90;99.90;;;0.47;100.00;100032.66;6186461;23;20062;-79
2024/03/26 05:58:17;;;;;;;32.20;9.93;;;2.00;99.90;;;0.54;100.00;100039.44;6162299;23;20405;-80
2024/03/26 06:00:43;;;;;;;24.83;8.75;;;2.10;99.90;;;0.60;100.00;100040.22;6187276;23;20140;-80
2024/03/26 06:03:11;;;;;;;27.85;9.48;;;2.10;99.90;;;0.71;100.00;100041.75;6161507;23;20012;-80
2024/03/26 06:05:37;;;;;;;28.92;9.00;;;2.20;99.90;;;0.77;100.00;100031.28;6161664;23;20009;-80
2024/03/26 06:08:03;;;;;;;26.00;10.57;;;2.30;99.90;;;0.87;100.00;100038.03;6161871;23;20013;-80
2024/03/26 06:10:29;;;;;;;25.42;9.95;;;2.40;99.90;;;0.96;100.00;100031.81;6213517;23;20100;-80
2024/03/26 06:12:55;;;;;;;26.30;10.20;;;2.40;99.90;;;1.09;100.00;100032.44;6186158;23;20020;-80
2024/03/26 06:15:21;;;;;;;24.58;9.90;;;2.60;99.90;;;1.20;100.00;100026.16;6187530;23;20036;-80
2024/03/26 06:17:54;;;;;;;24.80;10.52;;;2.70;99.90;;;1.32;100.00;100025.06;6186812;23;20001;-80
2024/03/26 06:20:20;;;;;;;23.17;10.63;;;2.80;99.90;;;1.48;100.00;100029.94;6188197;23;20001;-80
2024/03/26 06:22:46;;;;;;;23.05;10.27;;;2.90;99.90;;;1.58;100.00;100021.94;6186385;23;20685;-81
2024/03/26 06:25:12;;;;;;;24.17;9.77;;;3.10;99.90;;;1.74;100.00;100025.06;6162011;23;20012;-79
2024/03/26 06:27:37;;;;;;;21.83;9.82;;;3.20;99.90;;;1.89;100.00;100023.88;6186622;23;20028;-80
2024/03/26 06:30:11;;;;;;;25.80;10.55;;;3.30;99.90;;;2.02;100.00;100021.84;6161516;23;20400;-81
2024/03/26 06:32:38;;;;;;;25.00;10.77;;;3.40;99.90;;;2.14;100.00;100013.78;6186877;23;20004;-82
2024/03/26 06:35:04;;;;;;;25.33;11.02;;;3.50;99.90;;;2.27;100.00;100006.56;6187994;23;20004;-81
2024/03/26 06:37:32;;;;;;;22.92;10.10;;;3.70;99.90;;;2.43;100.00;100023.47;6186370;23;20005;-82
2024/03/26 06:40:00;;;;;;;27.27;11.15;;;3.80;99.90;;;2.59;100.00;100012.69;6187227;23;20471;-82
2024/03/26 06:42:28;;;;;;;22.88;10.40;;;4.00;99.90;;;2.82;100.00;100019.91;6186837;23;20011;-82
2024/03/26 06:44:54;;;;;;;25.67;10.70;;;4.20;99.90;;;3.00;100.00;100024.63;6187514;23;20437;-82
2024/03/26 06:47:20;;;;;;;21.65;9.60;;;4.30;99.90;;;3.19;100.00;100019.78;6187317;23;20096;-81
2024/03/26 06:49:52;;;;;;;17.42;8.57;;;4.50;99.90;;;3.36;100.00;100019.31;6182228;23;20065;-82
2024/03/26 06:52:21;;;;;;;19.58;9.65;;;;;;;3.54;100.00;100020.53;6163347;23;20015;-83
2024/03/26 06:54:47;;;;;;;18.40;9.05;;;4.90;99.90;;;3.75;100.00;100029.47;6187000;23;20035;-83
2024/03/26 06:57:13;;;;;;;23.27;8.55;;;5.00;99.90;;;3.92;100.00;100030.72;6187255;23;20008;-83
2024/03/26 06:59:46;;;;;;;21.05;9.02;;;5.20;99.90;;;4.10;100.00;100032.75;6162232;23;20012;-83
2024/03/26 07:02:12;;;;;;;21.63;8.88;;;5.40;99.90;;;4.29;100.00;100026.06;6187476;23;20005;-82
2024/03/26 07:04:40;;;;;;;8.90;4.15;;;;;;;4.35;100.00;100030.22;6186925;23;20464;-82
2024/03/26 07:07:11;;;;;;;21.75;7.45;;;5.70;99.90;;;4.51;100.00;100028.84;6187099;23;20058;-83
2024/03/26 07:09:38;;;;;;;16.15;7.30;;;;;;;4.67;100.00;100033.53;6188548;23;20040;-82
2024/03/26 07:12:05;;;;;;;16.55;7.93;;;5.90;99.90;;;4.78;100.00;100026.22;6186579;23;20020;-82
2024/03/26 07:14:32;;;;;;;17.63;7.28;;;6.00;99.90;;;4.84;100.00;100019.94;6161948;23;20013;-83
2024/03/26 07:17:09;;;;;;;10.45;6.22;;;6.10;99.90;;;4.86;100.00;100021.59;6187507;23;20036;-82
2024/03/26 07:19:35;;;;;;;13.73;6.50;;;;;;;4.90;100.00;100019.72;6164665;23;19997;-82
2024/03/26 07:22:02;;;;;;;13.35;5.88;;;6.20;99.90;;;5.00;100.00;100020.25;6186034;23;20080;-81
2024/03/26 07:24:36;;;;;;;13.55;6.55;;;6.30;99.90;;;5.18;100.00;100016.13;6162268;23;20008;-83
2024/03/26 07:27:02;;;;;;;10.90;6.10;;;6.50;99.90;;;5.30;100.00;100024.38;6187693;23;20377;-83
2024/03/26 07:29:54;;;;;;;12.05;6.90;;;6.60;99.90;;;5.42;100.00;100027.44;6187989;23;20447;-84
2024/03/26 07:32:20;;;;;;;13.18;6.60;;;6.70;99.90;;;5.61;100.00;100023.25;6091972;23;20026;-81
2024/03/26 07:34:46;;;;;;;13.85;6.80;;;6.90;99.90;;;5.79;100.00;100018.22;6068823;23;20018;-83
2024/03/26 07:37:12;;;;;;;14.05;6.68;;;7.10;99.90;;;5.96;100.00;100021.09;6044514;23;20113;-83
2024/03/26 07:39:40;;;;;;;18.52;6.20;;;7.20;99.90;;;6.03;99.23;100019.97;6069205;23;20010;-83
2024/03/26 07:42:09;;;;;;;9.25;5.50;;;7.30;99.90;;;6.16;97.89;100010.72;6069211;23;20102;-84
2024/03/26 07:44:38;;;;;;;13.10;6.72;;;7.50;99.90;;;6.42;97.28;100021.03;6045190;23;20014;-83
2024/03/26 07:47:04;;;;;;;13.63;6.88;;;7.60;99.90;;;6.54;96.43;100007.44;6069981;23;20487;-83
2024/03/26 07:49:37;;;;;;;14.50;6.15;;;7.80;99.90;;;6.74;95.27;100019.72;6045129;23;20157;-84
2024/03/26 07:52:03;;;;;;;13.73;6.47;;;7.90;99.90;;;6.75;93.56;100010.94;6045137;23;20026;-83
2024/03/26 07:54:32;;;;;;;14.82;6.70;;;8.00;99.90;;;6.94;92.73;100021.47;6045620;23;20455;-83
2024/03/26 07:56:58;;;;;;;13.18;5.90;;;8.10;99.90;;;6.95;91.38;100024.03;6069169;23;20014;-84
2024/03/26 07:59:31;;;;;;;12.45;6.05;;;8.20;99.90;;;7.00;91.10;100018.59;6045662;23;20040;-84
2024/03/26 08:01:59;;;;;;;14.57;5.32;;;8.30;99.90;;;7.20;90.94;100020.34;6047179;23;20006;-84
2024/03/26 08:04:41;;;;;;;9.38;5.50;;;8.50;99.90;;;7.33;89.55;100016.25;6046171;23;20074;-84
2024/03/26 08:07:14;;;;;;;12.55;6.07;;;8.60;99.90;;;7.55;88.98;100018.75;6047090;23;20424;-84
2024/03/26 08:09:43;;;;;;;12.07;6.25;;;;;;;7.70;87.24;100024.25;6129851;23;20469;-84
2024/03/26 08:12:09;;;;;;;11.85;5.50;;;9.00;99.90;;;7.97;87.53;100016.88;6188756;23;20054;-84
2024/03/26 08:14:43;;;;;;;9.85;4.38;;;9.10;99.90;;;8.06;85.61;100020.84;6187916;23;20009;-84
2024/03/26 08:17:12;;;;;;;11.18;4.90;;;;;;;8.17;83.44;100015.91;6189025;23;20055;-84
2024/03/26 08:19:37;;;;;;;11.27;5.00;;;9.40;99.90;;;8.34;82.56;100012.50;6188018;23;20008;-85
2024/03/26 08:22:11;;;;;;;10.75;5.10;;;9.40;99.90;;;8.21;80.39;100007.81;6163665;23;20083;-83
2024/03/26 08:25:10;;;;;;;15.73;5.40;;;9.50;99.90;;;8.50;81.21;100021.31;6188796;23;20060;-84
2024/03/26 08:27:53;;;;;;;10.07;4.60;;;9.60;99.90;;;8.66;79.72;100013.56;6093774;23;20019;-84
2024/03/26 08:30:29;;;;;;;10.68;4.80;;;9.80;99.90;;;8.51;77.82;100009.03;6069408;23;20017;-85
2024/03/26 08:32:55;;;;;;;13.27;4.87;;;;;;;8.38;77.65;100009.63;6045487;23;20033;-84
2024/03/26 08:38:32;;;;;;;15.73;5.97;;;;;;;8.92;77.26;100014.00;6094893;23;20014;-84
2024/03/26 08:41:09;;;;;;;12.88;5.25;;;10.20;99.90;;;9.12;77.09;100013.84;6094446;23;20014;-84
2024/03/26 08:43:34;;;;;;;10.88;5.15;;;10.20;99.90;;;9.03;75.83;100014.31;6072223;23;20018;-84
2024/03/26 08:46:11;;;;;;;12.48;5.57;;;10.30;99.90;;;9.22;76.33;100016.81;6046195;23;20006;-85
2024/03/26 08:48:41;;;;;;;12.20;4.80;;;;;;;9.49;76.10;100011.88;6044995;23;20011;-85
2024/03/26 08:51:15;;;;;;;13.18;5.70;;;;;;;9.47;74.50;100008.50;6093924;23;20010;-85
2024/03/26 08:53:41;;;;;;;6.70;3.25;;;;;;;9.37;72.74;100004.66;6093792;23;20038;-85
2024/03/26 08:59:47;;;;;;;;;;;;;;;;;;;;;
2024/03/26 09:02:17;;;;;;;12.90;5.20;;;;;;;9.61;72.63;100010.38;6213396;23;20265;-88
2024/03/26 09:04:55;;;;;;;13.25;5.05;;;;;;;9.75;71.89;100010.47;6187751;23;20075;-86
2024/03/26 09:14:47;;;;;;;14.02;4.50;;;11.10;99.90;;;9.93;68.35;100018.28;6093950;23;20053;-86
2024/03/26 09:17:56;;;;;;;;;;;;;;;;;;;;;
2024/03/26 09:21:23;;;;;;;11.50;5.18;;;11.40;99.90;;;10.26;67.94;100019.03;5951528;24;20099;-86
2024/03/26 09:24:06;;;;;;;11.75;4.55;;;;;;;10.46;67.74;100017.09;5927671;24;20009;-86
2024/03/26 09:26:45;;;;;;;7.50;4.15;;;;;;;10.50;66.70;100018.63;5928660;24;20064;-86
2024/03/26 09:29:23;;;;;;;8.98;4.32;;;;;;;10.61;66.66;100015.38;5929381;24;20095;-86
2024/03/26 09:31:52;;;;;;;9.80;4.57;;;11.80;99.90;;;10.57;66.75;100005.94;5923433;24;20426;-86
2024/03/26 09:35:34;;;;;;;6.57;3.50;;;11.80;99.90;;;10.62;65.36;100011.78;5877913;24;20037;-87
2024/03/26 09:38:42;;;;;;;10.60;4.40;;;;;;;10.90;65.14;100018.06;5867347;24;20074;-86
2024/03/26 09:44:52;;;;;;;7.22;3.67;;;;;;;11.15;62.95;100017.47;5979933;24;20433;-86
2024/03/26 09:51:34;;;;;;;8.32;4.47;;;12.10;99.90;;;10.85;62.06;100007.81;5979001;24;20008;-87
2024/03/26 09:55:15;;;;;;;;;;;;;;;;;;;;;
2024/03/26 09:58:15;;;;;;;4.03;2.53;;;12.00;99.90;;;10.74;61.47;100013.72;6148046;22;20692;-87
2024/03/26 10:02:12;;;;;;;;;;;;;;;;;;;;;
2024/03/26 10:09:23;;;;;;;6.38;3.95;;;12.00;99.90;;;10.74;60.64;99999.69;6007840;23;20076;-86
2024/03/26 10:12:24;;;;;;;8.30;4.85;;;;;;;10.78;61.09;100003.84;5899417;24;20054;-87
2024/03/26 10:15:54;;;;;;;9.77;4.95;;;12.10;99.90;;;11.14;62.34;100002.56;5900088;24;20013;-86
2024/03/26 10:19:02;;;;;;;7.00;3.72;;;12.30;99.90;;;11.21;60.50;100002.13;5900828;24;20506;-87
2024/03/26 10:21:57;;;;;;;8.50;4.32;;;12.40;99.90;;;11.17;59.46;100002.41;5903318;24;20017;-86
2024/03/26 10:28:05;;;;;;;8.20;4.05;;;;;;;11.02;59.38;100004.19;5816243;24;20144;-87
2024/03/26 10:30:45;;;;;;;9.10;4.45;;;;;;;11.20;60.12;100002.22;5737144;25;20048;-87
2024/03/26 10:33:44;;;;;;;6.55;3.53;;;;;;;11.25;56.49;100010.66;5789083;24;20441;-86
2024/03/26 10:36:34;;;;;;;6.30;3.92;;;;;;;11.30;56.80;100021.81;5789098;24;20485;-86
2024/03/26 10:46:46;;;;;;;9.32;3.10;;;12.70;99.90;;;11.47;56.73;99995.25;5816795;24;20022;-85
2024/03/26 10:49:26;;;;;;;10.52;4.50;;;;;;;11.68;56.04;100006.25;5794944;24;20007;-83
2024/03/26 10:52:09;;;;;;;8.63;3.63;;;;;;;11.72;53.68;100012.16;5788753;24;20099;-84
2024/03/26 10:58:44;;;;;;;7.30;3.38;;;12.90;99.90;;;11.66;55.54;99994.09;6156350;22;20059;-84
2024/03/26 11:04:41;;;;;;;3.33;2.08;;;;;;;11.59;54.73;99984.88;6064613;23;20094;-83
2024/03/26 11:07:37;;;;;;;6.43;3.67;;;12.90;99.90;;;11.63;54.92;99983.75;6064558;23;20014;-84
2024/03/26 11:10:44;;;;;;;7.53;3.38;;;12.90;99.90;;;11.78;54.83;99976.66;5900667;24;20048;-84
2024/03/26 11:13:56;;;;;;;6.60;3.40;;;13.00;99.90;;;11.93;54.47;99991.53;5873300;24;20439;-83
2024/03/26 11:16:41;;;;;;;8.65;3.75;;;13.10;99.90;;;11.88;53.57;99996.28;5867751;24;20406;-84
2024/03/26 11:20:07;;;;;;;6.20;3.35;;;13.00;99.90;;;11.79;52.73;99992.41;5868691;24;20021;-85
2024/03/26 11:23:34;;;;;;;4.35;2.35;;;13.00;99.90;;;11.77;51.51;99991.66;5846157;24;20456;-83
2024/03/26 11:29:08;;;;;;;;;;;;;;;;;;;;;
2024/03/26 11:31:35;;;;;;;5.78;3.20;;;;;;;11.84;52.62;99986.81;6151121;23;20093;-83
2024/03/26 11:38:50;;;;;;;7.13;3.10;;;13.10;99.90;;;11.84;51.99;99985.03;6101320;23;20021;-84
2024/03/26 11:41:36;;;;;;;;;;;;;;;;;;;;;
2024/03/26 11:47:35;;;;;;;7.25;3.55;;;12.90;99.90;;;11.69;52.69;99957.00;5950949;24;20016;-83
2024/03/26 11:56:57;;;;;;;;;;;13.00;99.90;;;11.85;52.13;99956.84;5944607;22;20379;-83
2024/03/26 11:59:33;;;;;;;4.55;2.90;;;;;;;11.86;52.97;99953.28;6040460;23;19921;-83
2024/03/26 12:06:12;;;;;;;6.55;3.20;;;13.00;99.90;;;11.74;53.31;99936.44;6046145;23;20074;-83
2024/03/26 12:12:24;;;;;;;5.60;2.63;;;12.70;99.90;;;11.50;52.67;99917.75;6063116;23;20021;-84
2024/03/26 12:22:17;;;;;;;5.82;3.42;;;;;;;11.73;53.39;99910.16;5841018;24;20674;-86
2024/03/26 12:24:58;;;;;;;5.47;2.60;;;;;;;11.89;52.94;99911.75;5841759;24;20011;-84
2024/03/26 12:28:04;;;;;;;4.38;2.38;;;13.10;99.90;;;11.98;51.46;99930.56;5841130;24;20045;-84